sensor_id;sensor_type;location;lat;lon;timestamp;P1;durP1;ratioP1;P2;durP2;ratioP2
35306;SDS011;21420;52.196;21.416;2023-03-23T00:01:48;57.40;;;32.60;;
35306;SDS011;21420;52.196;21.416;2023-03-23T00:04:15;51.80;;;30.60;;
35306;SDS011;21420;52.196;21.416;2023-03-23T00:06:41;67.50;;;37.00;;
35306;SDS011;21420;52.196;21.416;2023-03-23T00:09:11;120.90;;;56.60;;
35306;SDS011;21420;52.196;21.416;2023-03-23T00:11:40;62.20;;;35.40;;
35306;SDS011;21420;52.196;21.416;2023-03-23T00:14:08;62.20;;;35.70;;
35306;SDS011;21420;52.196;21.416;2023-03-23T00:16:38;65.60;;;36.00;;
35306;SDS011;21420;52.196;21.416;2023-03-23T00:19:07;40.40;;;27.50;;
35306;SDS011;21420;52.196;21.416;2023-03-23T00:21:39;39.50;;;25.80;;
35306;SDS011;21420;52.196;21.416;2023-03-23T00:24:24;39.40;;;25.00;;
35306;SDS011;21420;52.196;21.416;2023-03-23T00:26:50;34.10;;;23.70;;
35306;SDS011;21420;52.196;21.416;2023-03-23T00:29:19;38.20;;;25.80;;
35306;SDS011;21420;52.196;21.416;2023-03-23T00:31:49;46.70;;;28.00;;
35306;SDS011;21420;52.196;21.416;2023-03-23T00:34:16;49.90;;;31.00;;
35306;SDS011;21420;52.196;21.416;2023-03-23T00:36:45;38.20;;;25.20;;
35306;SDS011;21420;52.196;21.416;2023-03-23T00:39:12;34.00;;;24.90;;
35306;SDS011;21420;52.196;21.416;2023-03-23T00:41:41;32.00;;;23.70;;
35306;SDS011;21420;52.196;21.416;2023-03-23T00:44:09;35.10;;;25.50;;
35306;SDS011;21420;52.196;21.416;2023-03-23T00:46:35;35.00;;;24.70;;
35306;SDS011;21420;52.196;21.416;2023-03-23T00:49:13;42.50;;;27.60;;
35306;SDS011;21420;52.196;21.416;2023-03-23T00:51:41;56.90;;;32.00;;
35306;SDS011;21420;52.196;21.416;2023-03-23T00:54:08;54.90;;;31.60;;
35306;SDS011;21420;52.196;21.416;2023-03-23T00:56:35;45.50;;;28.90;;
35306;SDS011;21420;52.196;21.416;2023-03-23T00:59:02;61.50;;;35.30;;
35306;SDS011;21420;52.196;21.416;2023-03-23T01:01:28;45.00;;;28.50;;
35306;SDS011;21420;52.196;21.416;2023-03-23T01:03:57;47.60;;;30.00;;
35306;SDS011;21420;52.196;21.416;2023-03-23T01:06:36;44.30;;;28.10;;
35306;SDS011;21420;52.196;21.416;2023-03-23T01:09:05;42.60;;;26.00;;
35306;SDS011;21420;52.196;21.416;2023-03-23T01:11:32;31.60;;;23.70;;
35306;SDS011;21420;52.196;21.416;2023-03-23T01:14:00;32.80;;;23.90;;
35306;SDS011;21420;52.196;21.416;2023-03-23T01:16:26;34.20;;;22.80;;
35306;SDS011;21420;52.196;21.416;2023-03-23T01:18:52;32.30;;;24.20;;
35306;SDS011;21420;52.196;21.416;2023-03-23T01:21:19;32.40;;;23.40;;
35306;SDS011;21420;52.196;21.416;2023-03-23T01:23:46;34.20;;;23.40;;
35306;SDS011;21420;52.196;21.416;2023-03-23T01:26:14;31.90;;;23.50;;
35306;SDS011;21420;52.196;21.416;2023-03-23T01:28:42;32.50;;;23.20;;
35306;SDS011;21420;52.196;21.416;2023-03-23T01:31:12;37.30;;;24.00;;
35306;SDS011;21420;52.196;21.416;2023-03-23T01:33:39;37.10;;;24.90;;
35306;SDS011;21420;52.196;21.416;2023-03-23T01:36:16;37.90;;;24.10;;
35306;SDS011;21420;52.196;21.416;2023-03-23T01:38:45;33.60;;;23.80;;
35306;SDS011;21420;52.196;21.416;2023-03-23T01:41:13;33.90;;;23.90;;
35306;SDS011;21420;52.196;21.416;2023-03-23T01:43:53;33.90;;;23.70;;
35306;SDS011;21420;52.196;21.416;2023-03-23T01:46:49;30.40;;;22.80;;
35306;SDS011;21420;52.196;21.416;2023-03-23T01:49:20;33.60;;;24.10;;
35306;SDS011;21420;52.196;21.416;2023-03-23T01:51:49;31.40;;;23.00;;
35306;SDS011;21420;52.196;21.416;2023-03-23T01:54:21;30.40;;;22.40;;
35306;SDS011;21420;52.196;21.416;2023-03-23T01:59:40;36.80;;;24.40;;
35306;SDS011;21420;52.196;21.416;2023-03-23T02:02:25;28.90;;;23.30;;
35306;SDS011;21420;52.196;21.416;2023-03-23T02:04:52;30.50;;;22.90;;
35306;SDS011;21420;52.196;21.416;2023-03-23T02:07:24;30.90;;;23.00;;
35306;SDS011;21420;52.196;21.416;2023-03-23T02:09:52;36.30;;;23.70;;
35306;SDS011;21420;52.196;21.416;2023-03-23T02:12:18;33.30;;;23.20;;
35306;SDS011;21420;52.196;21.416;2023-03-23T02:14:44;32.50;;;23.50;;
35306;SDS011;21420;52.196;21.416;2023-03-23T02:36:20;32.30;;;23.70;;
35306;SDS011;21420;52.196;21.416;2023-03-23T02:38:55;31.50;;;22.80;;
35306;SDS011;21420;52.196;21.416;2023-03-23T02:41:34;34.50;;;23.70;;
35306;SDS011;21420;52.196;21.416;2023-03-23T02:44:06;31.90;;;23.30;;
35306;SDS011;21420;52.196;21.416;2023-03-23T02:46:35;33.30;;;24.00;;
35306;SDS011;21420;52.196;21.416;2023-03-23T02:49:02;31.40;;;22.50;;
35306;SDS011;21420;52.196;21.416;2023-03-23T02:53:59;32.80;;;23.90;;
35306;SDS011;21420;52.196;21.416;2023-03-23T02:56:26;32.50;;;24.20;;
35306;SDS011;21420;52.196;21.416;2023-03-23T02:58:54;35.70;;;25.40;;
35306;SDS011;21420;52.196;21.416;2023-03-23T03:04:11;32.00;;;23.30;;
35306;SDS011;21420;52.196;21.416;2023-03-23T03:07:19;32.20;;;24.10;;
35306;SDS011;21420;52.196;21.416;2023-03-23T03:12:34;34.90;;;25.50;;
35306;SDS011;21420;52.196;21.416;2023-03-23T03:20:32;31.40;;;24.30;;
35306;SDS011;21420;52.196;21.416;2023-03-23T03:23:03;33.90;;;23.90;;
35306;SDS011;21420;52.196;21.416;2023-03-23T03:28:01;36.60;;;25.40;;
35306;SDS011;21420;52.196;21.416;2023-03-23T03:30:39;35.50;;;25.00;;
35306;SDS011;21420;52.196;21.416;2023-03-23T03:33:09;36.50;;;24.50;;
35306;SDS011;21420;52.196;21.416;2023-03-23T03:35:37;34.10;;;23.10;;
35306;SDS011;21420;52.196;21.416;2023-03-23T03:38:07;38.50;;;25.80;;
35306;SDS011;21420;52.196;21.416;2023-03-23T03:40:35;36.00;;;24.70;;
35306;SDS011;21420;52.196;21.416;2023-03-23T03:43:00;36.10;;;25.00;;
35306;SDS011;21420;52.196;21.416;2023-03-23T03:45:27;33.50;;;24.50;;
35306;SDS011;21420;52.196;21.416;2023-03-23T03:47:54;33.00;;;23.50;;
35306;SDS011;21420;52.196;21.416;2023-03-23T03:50:21;33.80;;;24.10;;
35306;SDS011;21420;52.196;21.416;2023-03-23T03:52:46;29.30;;;22.40;;
35306;SDS011;21420;52.196;21.416;2023-03-23T03:55:12;32.00;;;23.30;;
35306;SDS011;21420;52.196;21.416;2023-03-23T03:57:40;36.30;;;23.60;;
35306;SDS011;21420;52.196;21.416;2023-03-23T04:00:25;33.10;;;24.80;;
35306;SDS011;21420;52.196;21.416;2023-03-23T04:02:51;42.40;;;25.50;;
35306;SDS011;21420;52.196;21.416;2023-03-23T04:05:52;29.30;;;22.70;;
35306;SDS011;21420;52.196;21.416;2023-03-23T04:08:24;33.50;;;23.20;;
35306;SDS011;21420;52.196;21.416;2023-03-23T04:10:52;32.20;;;23.70;;
35306;SDS011;21420;52.196;21.416;2023-03-23T04:13:19;34.10;;;23.80;;
35306;SDS011;21420;52.196;21.416;2023-03-23T04:16:10;33.70;;;24.00;;
35306;SDS011;21420;52.196;21.416;2023-03-23T04:18:37;31.00;;;22.60;;
35306;SDS011;21420;52.196;21.416;2023-03-23T04:21:04;34.30;;;22.70;;
35306;SDS011;21420;52.196;21.416;2023-03-23T04:23:32;31.50;;;23.30;;
35306;SDS011;21420;52.196;21.416;2023-03-23T04:26:01;31.30;;;24.00;;
35306;SDS011;21420;52.196;21.416;2023-03-23T04:28:34;33.60;;;23.00;;
35306;SDS011;21420;52.196;21.416;2023-03-23T04:31:18;33.10;;;22.10;;
35306;SDS011;21420;52.196;21.416;2023-03-23T04:33:46;32.80;;;21.60;;
35306;SDS011;21420;52.196;21.416;2023-03-23T04:36:13;30.40;;;23.40;;
35306;SDS011;21420;52.196;21.416;2023-03-23T04:38:50;30.70;;;23.10;;
35306;SDS011;21420;52.196;21.416;2023-03-23T04:41:21;35.30;;;22.70;;
35306;SDS011;21420;52.196;21.416;2023-03-23T04:44:00;30.10;;;22.70;;
35306;SDS011;21420;52.196;21.416;2023-03-23T04:46:44;30.40;;;23.80;;
35306;SDS011;21420;52.196;21.416;2023-03-23T04:49:16;31.90;;;23.90;;
35306;SDS011;21420;52.196;21.416;2023-03-23T04:51:48;31.50;;;23.60;;
35306;SDS011;21420;52.196;21.416;2023-03-23T04:54:25;32.40;;;22.80;;
35306;SDS011;21420;52.196;21.416;2023-03-23T04:56:55;33.90;;;22.20;;
35306;SDS011;21420;52.196;21.416;2023-03-23T04:59:23;34.40;;;24.70;;
35306;SDS011;21420;52.196;21.416;2023-03-23T05:04:29;33.30;;;23.20;;
35306;SDS011;21420;52.196;21.416;2023-03-23T05:07:03;31.90;;;22.20;;
35306;SDS011;21420;52.196;21.416;2023-03-23T05:09:31;34.10;;;23.30;;
35306;SDS011;21420;52.196;21.416;2023-03-23T05:11:56;32.50;;;23.30;;
35306;SDS011;21420;52.196;21.416;2023-03-23T05:14:25;32.00;;;23.90;;
35306;SDS011;21420;52.196;21.416;2023-03-23T05:17:00;34.40;;;24.50;;
35306;SDS011;21420;52.196;21.416;2023-03-23T05:19:26;36.10;;;23.40;;
35306;SDS011;21420;52.196;21.416;2023-03-23T05:21:58;33.40;;;23.60;;
35306;SDS011;21420;52.196;21.416;2023-03-23T05:24:40;32.20;;;22.10;;
35306;SDS011;21420;52.196;21.416;2023-03-23T05:27:09;30.20;;;23.20;;
35306;SDS011;21420;52.196;21.416;2023-03-23T05:29:37;33.90;;;21.10;;
35306;SDS011;21420;52.196;21.416;2023-03-23T05:32:07;29.90;;;22.00;;
35306;SDS011;21420;52.196;21.416;2023-03-23T05:34:34;35.20;;;23.60;;
35306;SDS011;21420;52.196;21.416;2023-03-23T05:37:01;34.90;;;24.80;;
35306;SDS011;21420;52.196;21.416;2023-03-23T05:39:55;34.10;;;24.60;;
35306;SDS011;21420;52.196;21.416;2023-03-23T05:42:59;29.80;;;21.90;;
35306;SDS011;21420;52.196;21.416;2023-03-23T05:45:40;30.70;;;22.00;;
35306;SDS011;21420;52.196;21.416;2023-03-23T05:48:06;30.30;;;22.90;;
35306;SDS011;21420;52.196;21.416;2023-03-23T05:50:32;30.60;;;21.90;;
35306;SDS011;21420;52.196;21.416;2023-03-23T05:52:58;31.80;;;21.40;;
35306;SDS011;21420;52.196;21.416;2023-03-23T05:55:24;30.20;;;21.50;;
35306;SDS011;21420;52.196;21.416;2023-03-23T05:57:58;26.00;;;20.40;;
35306;SDS011;21420;52.196;21.416;2023-03-23T06:00:27;25.50;;;20.90;;
35306;SDS011;21420;52.196;21.416;2023-03-23T06:03:02;28.40;;;20.70;;
35306;SDS011;21420;52.196;21.416;2023-03-23T06:05:57;30.50;;;20.50;;
35306;SDS011;21420;52.196;21.416;2023-03-23T06:08:30;26.80;;;20.20;;
35306;SDS011;21420;52.196;21.416;2023-03-23T06:10:56;25.10;;;19.50;;
35306;SDS011;21420;52.196;21.416;2023-03-23T06:13:22;26.70;;;20.30;;
35306;SDS011;21420;52.196;21.416;2023-03-23T06:15:50;29.60;;;20.50;;
35306;SDS011;21420;52.196;21.416;2023-03-23T06:18:38;26.60;;;19.20;;
35306;SDS011;21420;52.196;21.416;2023-03-23T06:21:32;26.80;;;20.00;;
35306;SDS011;21420;52.196;21.416;2023-03-23T06:24:03;28.50;;;19.80;;
35306;SDS011;21420;52.196;21.416;2023-03-23T06:26:35;24.80;;;18.80;;
35306;SDS011;21420;52.196;21.416;2023-03-23T06:29:06;25.60;;;19.80;;
35306;SDS011;21420;52.196;21.416;2023-03-23T06:31:40;25.50;;;18.60;;
35306;SDS011;21420;52.196;21.416;2023-03-23T06:34:08;23.60;;;18.40;;
35306;SDS011;21420;52.196;21.416;2023-03-23T06:36:54;24.20;;;17.40;;
35306;SDS011;21420;52.196;21.416;2023-03-23T06:39:42;23.30;;;17.90;;
35306;SDS011;21420;52.196;21.416;2023-03-23T06:42:17;25.90;;;17.80;;
35306;SDS011;21420;52.196;21.416;2023-03-23T06:44:47;23.80;;;18.00;;
35306;SDS011;21420;52.196;21.416;2023-03-23T06:47:13;21.60;;;17.90;;
35306;SDS011;21420;52.196;21.416;2023-03-23T06:49:45;23.70;;;17.50;;
35306;SDS011;21420;52.196;21.416;2023-03-23T06:52:19;24.50;;;17.20;;
35306;SDS011;21420;52.196;21.416;2023-03-23T06:54:45;24.40;;;17.50;;
35306;SDS011;21420;52.196;21.416;2023-03-23T06:57:11;26.70;;;17.10;;
35306;SDS011;21420;52.196;21.416;2023-03-23T06:59:37;21.40;;;17.00;;
35306;SDS011;21420;52.196;21.416;2023-03-23T07:02:03;26.10;;;18.40;;
35306;SDS011;21420;52.196;21.416;2023-03-23T07:04:30;25.50;;;18.40;;
35306;SDS011;21420;52.196;21.416;2023-03-23T07:07:07;21.20;;;16.90;;
35306;SDS011;21420;52.196;21.416;2023-03-23T07:09:38;23.00;;;16.50;;
35306;SDS011;21420;52.196;21.416;2023-03-23T07:12:05;19.80;;;16.20;;
35306;SDS011;21420;52.196;21.416;2023-03-23T07:14:36;22.10;;;16.90;;
35306;SDS011;21420;52.196;21.416;2023-03-23T07:17:02;24.80;;;16.00;;
35306;SDS011;21420;52.196;21.416;2023-03-23T07:19:30;17.10;;;14.40;;
35306;SDS011;21420;52.196;21.416;2023-03-23T07:21:57;19.40;;;15.00;;
35306;SDS011;21420;52.196;21.416;2023-03-23T07:24:23;20.10;;;15.60;;
35306;SDS011;21420;52.196;21.416;2023-03-23T07:27:03;19.40;;;14.50;;
35306;SDS011;21420;52.196;21.416;2023-03-23T07:29:29;18.60;;;14.20;;
35306;SDS011;21420;52.196;21.416;2023-03-23T07:32:05;19.40;;;14.10;;
35306;SDS011;21420;52.196;21.416;2023-03-23T07:34:32;19.70;;;13.10;;
35306;SDS011;21420;52.196;21.416;2023-03-23T07:37:12;17.70;;;14.00;;
35306;SDS011;21420;52.196;21.416;2023-03-23T07:39:45;19.40;;;13.40;;
35306;SDS011;21420;52.196;21.416;2023-03-23T07:42:11;14.60;;;12.40;;
35306;SDS011;21420;52.196;21.416;2023-03-23T07:44:41;16.30;;;13.00;;
35306;SDS011;21420;52.196;21.416;2023-03-23T07:47:09;14.80;;;12.50;;
35306;SDS011;21420;52.196;21.416;2023-03-23T07:49:35;16.10;;;12.30;;
35306;SDS011;21420;52.196;21.416;2023-03-23T07:52:12;16.70;;;12.40;;
35306;SDS011;21420;52.196;21.416;2023-03-23T07:54:38;15.80;;;11.90;;
35306;SDS011;21420;52.196;21.416;2023-03-23T07:57:17;16.10;;;11.70;;
35306;SDS011;21420;52.196;21.416;2023-03-23T07:59:47;14.00;;;10.80;;
35306;SDS011;21420;52.196;21.416;2023-03-23T08:02:13;13.20;;;11.30;;
35306;SDS011;21420;52.196;21.416;2023-03-23T08:04:51;15.90;;;11.50;;
35306;SDS011;21420;52.196;21.416;2023-03-23T08:07:37;12.70;;;10.90;;
35306;SDS011;21420;52.196;21.416;2023-03-23T08:10:21;15.40;;;10.80;;
35306;SDS011;21420;52.196;21.416;2023-03-23T08:13:07;13.30;;;10.50;;
35306;SDS011;21420;52.196;21.416;2023-03-23T08:16:06;15.20;;;10.40;;
35306;SDS011;21420;52.196;21.416;2023-03-23T08:19:06;15.40;;;11.00;;
35306;SDS011;21420;52.196;21.416;2023-03-23T08:21:44;12.90;;;9.40;;
35306;SDS011;21420;52.196;21.416;2023-03-23T08:24:37;11.80;;;9.00;;
35306;SDS011;21420;52.196;21.416;2023-03-23T08:27:24;10.90;;;9.30;;
35306;SDS011;21420;52.196;21.416;2023-03-23T08:30:06;10.00;;;9.00;;
35306;SDS011;21420;52.196;21.416;2023-03-23T08:33:02;12.60;;;9.40;;
35306;SDS011;21420;52.196;21.416;2023-03-23T08:38:51;10.50;;;8.10;;
35306;SDS011;21420;52.196;21.416;2023-03-23T08:41:28;11.30;;;8.40;;
35306;SDS011;21420;52.196;21.416;2023-03-23T08:44:03;10.00;;;7.50;;
35306;SDS011;21420;52.196;21.416;2023-03-23T08:46:48;11.40;;;7.50;;
35306;SDS011;21420;52.196;21.416;2023-03-23T08:49:25;9.10;;;7.50;;
35306;SDS011;21420;52.196;21.416;2023-03-23T08:52:29;7.80;;;6.80;;
35306;SDS011;21420;52.196;21.416;2023-03-23T08:55:16;8.50;;;7.00;;
35306;SDS011;21420;52.196;21.416;2023-03-23T08:57:53;8.30;;;5.90;;
35306;SDS011;21420;52.196;21.416;2023-03-23T09:00:45;7.70;;;6.30;;
35306;SDS011;21420;52.196;21.416;2023-03-23T09:03:38;6.90;;;5.50;;
35306;SDS011;21420;52.196;21.416;2023-03-23T09:06:28;5.90;;;4.70;;
35306;SDS011;21420;52.196;21.416;2023-03-23T09:08:54;7.50;;;5.80;;
35306;SDS011;21420;52.196;21.416;2023-03-23T09:11:21;6.20;;;5.20;;
35306;SDS011;21420;52.196;21.416;2023-03-23T09:13:47;8.20;;;4.90;;
35306;SDS011;21420;52.196;21.416;2023-03-23T09:16:13;7.40;;;5.40;;
35306;SDS011;21420;52.196;21.416;2023-03-23T09:18:39;6.40;;;5.20;;
35306;SDS011;21420;52.196;21.416;2023-03-23T09:21:05;7.70;;;5.90;;
35306;SDS011;21420;52.196;21.416;2023-03-23T09:23:31;6.80;;;5.80;;
35306;SDS011;21420;52.196;21.416;2023-03-23T09:25:59;7.00;;;6.00;;
35306;SDS011;21420;52.196;21.416;2023-03-23T09:28:26;7.60;;;5.90;;
35306;SDS011;21420;52.196;21.416;2023-03-23T09:30:54;8.70;;;6.30;;
35306;SDS011;21420;52.196;21.416;2023-03-23T09:33:22;16.80;;;15.00;;
35306;SDS011;21420;52.196;21.416;2023-03-23T09:35:49;10.20;;;6.70;;
35306;SDS011;21420;52.196;21.416;2023-03-23T09:38:15;7.00;;;6.00;;
35306;SDS011;21420;52.196;21.416;2023-03-23T09:48:51;8.20;;;5.80;;
35306;SDS011;21420;52.196;21.416;2023-03-23T09:56:49;10.90;;;8.80;;
35306;SDS011;21420;52.196;21.416;2023-03-23T09:59:19;7.50;;;6.50;;
35306;SDS011;21420;52.196;21.416;2023-03-23T10:01:51;8.60;;;6.00;;
35306;SDS011;21420;52.196;21.416;2023-03-23T10:07:20;7.20;;;5.40;;
35306;SDS011;21420;52.196;21.416;2023-03-23T10:09:50;9.80;;;6.10;;
35306;SDS011;21420;52.196;21.416;2023-03-23T10:26:04;9.90;;;6.70;;
35306;SDS011;21420;52.196;21.416;2023-03-23T10:28:42;11.70;;;6.80;;
35306;SDS011;21420;52.196;21.416;2023-03-23T10:31:17;9.20;;;6.80;;
35306;SDS011;21420;52.196;21.416;2023-03-23T10:33:48;9.50;;;6.80;;
35306;SDS011;21420;52.196;21.416;2023-03-23T10:41:31;8.30;;;6.20;;
35306;SDS011;21420;52.196;21.416;2023-03-23T10:43:57;8.40;;;6.40;;
35306;SDS011;21420;52.196;21.416;2023-03-23T10:49:12;7.70;;;5.90;;
35306;SDS011;21420;52.196;21.416;2023-03-23T10:51:44;6.10;;;5.10;;
35306;SDS011;21420;52.196;21.416;2023-03-23T10:54:32;9.30;;;6.10;;
35306;SDS011;21420;52.196;21.416;2023-03-23T11:02:38;7.00;;;5.20;;
35306;SDS011;21420;52.196;21.416;2023-03-23T11:05:18;5.80;;;4.80;;
35306;SDS011;21420;52.196;21.416;2023-03-23T11:08:10;5.20;;;4.60;;
35306;SDS011;21420;52.196;21.416;2023-03-23T11:10:47;7.30;;;5.10;;
35306;SDS011;21420;52.196;21.416;2023-03-23T11:13:16;8.50;;;5.30;;
35306;SDS011;21420;52.196;21.416;2023-03-23T11:15:45;6.40;;;5.30;;
35306;SDS011;21420;52.196;21.416;2023-03-23T11:20:46;8.60;;;5.80;;
35306;SDS011;21420;52.196;21.416;2023-03-23T11:23:19;7.90;;;5.60;;
35306;SDS011;21420;52.196;21.416;2023-03-23T11:28:46;7.60;;;5.20;;
35306;SDS011;21420;52.196;21.416;2023-03-23T11:31:24;9.30;;;6.70;;
35306;SDS011;21420;52.196;21.416;2023-03-23T11:36:30;7.90;;;6.10;;
35306;SDS011;21420;52.196;21.416;2023-03-23T11:38:59;6.70;;;6.00;;
35306;SDS011;21420;52.196;21.416;2023-03-23T11:41:31;7.00;;;5.30;;
35306;SDS011;21420;52.196;21.416;2023-03-23T11:44:03;6.40;;;5.80;;
35306;SDS011;21420;52.196;21.416;2023-03-23T11:49:20;5.00;;;4.50;;
35306;SDS011;21420;52.196;21.416;2023-03-23T11:52:05;5.20;;;4.70;;
35306;SDS011;21420;52.196;21.416;2023-03-23T11:55:17;6.00;;;4.80;;
35306;SDS011;21420;52.196;21.416;2023-03-23T11:57:44;5.30;;;4.50;;
35306;SDS011;21420;52.196;21.416;2023-03-23T12:00:14;4.00;;;3.50;;
35306;SDS011;21420;52.196;21.416;2023-03-23T12:06:12;4.10;;;3.50;;
35306;SDS011;21420;52.196;21.416;2023-03-23T12:13:58;5.50;;;3.80;;
35306;SDS011;21420;52.196;21.416;2023-03-23T12:16:36;5.80;;;3.50;;
35306;SDS011;21420;52.196;21.416;2023-03-23T12:19:16;3.30;;;3.00;;
35306;SDS011;21420;52.196;21.416;2023-03-23T12:21:52;2.80;;;2.20;;
35306;SDS011;21420;52.196;21.416;2023-03-23T12:28:15;3.30;;;2.80;;
35306;SDS011;21420;52.196;21.416;2023-03-23T12:43:02;3.70;;;2.20;;
35306;SDS011;21420;52.196;21.416;2023-03-23T12:48:24;6.50;;;2.70;;
35306;SDS011;21420;52.196;21.416;2023-03-23T12:53:23;4.60;;;3.00;;
35306;SDS011;21420;52.196;21.416;2023-03-23T12:58:43;3.80;;;3.40;;
35306;SDS011;21420;52.196;21.416;2023-03-23T13:03:59;6.70;;;3.80;;
35306;SDS011;21420;52.196;21.416;2023-03-23T13:06:28;8.60;;;4.70;;
35306;SDS011;21420;52.196;21.416;2023-03-23T13:11:48;4.70;;;3.70;;
35306;SDS011;21420;52.196;21.416;2023-03-23T13:22:18;6.20;;;4.00;;
35306;SDS011;21420;52.196;21.416;2023-03-23T13:27:25;5.40;;;3.80;;
35306;SDS011;21420;52.196;21.416;2023-03-23T13:29:54;4.90;;;3.80;;
35306;SDS011;21420;52.196;21.416;2023-03-23T13:32:21;7.50;;;4.50;;
35306;SDS011;21420;52.196;21.416;2023-03-23T13:34:54;5.70;;;4.10;;
35306;SDS011;21420;52.196;21.416;2023-03-23T13:37:24;8.00;;;4.30;;
35306;SDS011;21420;52.196;21.416;2023-03-23T13:39:52;5.30;;;3.70;;
35306;SDS011;21420;52.196;21.416;2023-03-23T13:44:57;7.70;;;3.90;;
35306;SDS011;21420;52.196;21.416;2023-03-23T13:47:41;5.70;;;3.90;;
35306;SDS011;21420;52.196;21.416;2023-03-23T14:05:44;6.40;;;4.40;;
35306;SDS011;21420;52.196;21.416;2023-03-23T14:10:59;5.30;;;4.60;;
35306;SDS011;21420;52.196;21.416;2023-03-23T14:18:41;4.70;;;3.50;;
35306;SDS011;21420;52.196;21.416;2023-03-23T14:21:15;4.80;;;4.00;;
35306;SDS011;21420;52.196;21.416;2023-03-23T14:23:46;7.10;;;3.80;;
35306;SDS011;21420;52.196;21.416;2023-03-23T14:26:16;5.90;;;3.70;;
35306;SDS011;21420;52.196;21.416;2023-03-23T14:28:44;8.90;;;3.40;;
35306;SDS011;21420;52.196;21.416;2023-03-23T14:31:25;6.80;;;3.50;;
35306;SDS011;21420;52.196;21.416;2023-03-23T14:33:53;5.00;;;3.60;;
35306;SDS011;21420;52.196;21.416;2023-03-23T14:36:26;8.90;;;3.50;;
35306;SDS011;21420;52.196;21.416;2023-03-23T14:39:01;5.50;;;2.80;;
35306;SDS011;21420;52.196;21.416;2023-03-23T14:41:34;10.00;;;3.00;;
35306;SDS011;21420;52.196;21.416;2023-03-23T14:44:02;5.60;;;4.00;;
35306;SDS011;21420;52.196;21.416;2023-03-23T14:48:59;4.90;;;3.50;;
35306;SDS011;21420;52.196;21.416;2023-03-23T14:51:27;5.20;;;3.20;;
35306;SDS011;21420;52.196;21.416;2023-03-23T14:53:53;4.70;;;3.30;;
35306;SDS011;21420;52.196;21.416;2023-03-23T14:56:20;5.30;;;3.00;;
35306;SDS011;21420;52.196;21.416;2023-03-23T14:58:49;4.10;;;3.10;;
35306;SDS011;21420;52.196;21.416;2023-03-23T15:01:18;7.30;;;3.00;;
35306;SDS011;21420;52.196;21.416;2023-03-23T15:03:51;3.90;;;3.20;;
35306;SDS011;21420;52.196;21.416;2023-03-23T15:06:21;8.00;;;3.70;;
35306;SDS011;21420;52.196;21.416;2023-03-23T15:08:52;7.20;;;3.10;;
35306;SDS011;21420;52.196;21.416;2023-03-23T15:11:24;6.20;;;3.30;;
35306;SDS011;21420;52.196;21.416;2023-03-23T15:13:55;5.00;;;3.40;;
35306;SDS011;21420;52.196;21.416;2023-03-23T15:16:28;5.30;;;3.80;;
35306;SDS011;21420;52.196;21.416;2023-03-23T15:19:06;5.90;;;4.00;;
35306;SDS011;21420;52.196;21.416;2023-03-23T15:21:49;5.30;;;3.60;;
35306;SDS011;21420;52.196;21.416;2023-03-23T15:24:39;7.40;;;4.50;;
35306;SDS011;21420;52.196;21.416;2023-03-23T15:29:56;6.50;;;3.90;;
35306;SDS011;21420;52.196;21.416;2023-03-23T15:32:24;8.50;;;4.90;;
35306;SDS011;21420;52.196;21.416;2023-03-23T15:34:52;7.00;;;4.60;;
35306;SDS011;21420;52.196;21.416;2023-03-23T15:37:20;5.70;;;4.70;;
35306;SDS011;21420;52.196;21.416;2023-03-23T15:39:50;5.10;;;4.30;;
35306;SDS011;21420;52.196;21.416;2023-03-23T15:42:21;7.00;;;4.50;;
35306;SDS011;21420;52.196;21.416;2023-03-23T15:44:57;7.10;;;4.60;;
35306;SDS011;21420;52.196;21.416;2023-03-23T15:47:35;5.70;;;4.80;;
35306;SDS011;21420;52.196;21.416;2023-03-23T15:50:08;8.20;;;5.00;;
35306;SDS011;21420;52.196;21.416;2023-03-23T15:52:38;9.50;;;4.20;;
35306;SDS011;21420;52.196;21.416;2023-03-23T15:55:39;6.60;;;4.90;;
35306;SDS011;21420;52.196;21.416;2023-03-23T15:58:07;5.60;;;4.60;;
35306;SDS011;21420;52.196;21.416;2023-03-23T16:00:37;11.90;;;5.30;;
35306;SDS011;21420;52.196;21.416;2023-03-23T16:03:06;5.70;;;5.00;;
35306;SDS011;21420;52.196;21.416;2023-03-23T16:05:38;7.00;;;5.00;;
35306;SDS011;21420;52.196;21.416;2023-03-23T16:08:07;9.20;;;4.70;;
35306;SDS011;21420;52.196;21.416;2023-03-23T16:10:36;9.00;;;5.10;;
35306;SDS011;21420;52.196;21.416;2023-03-23T16:13:03;6.70;;;4.70;;
35306;SDS011;21420;52.196;21.416;2023-03-23T16:15:31;6.50;;;5.00;;
35306;SDS011;21420;52.196;21.416;2023-03-23T16:18:01;6.20;;;5.00;;
35306;SDS011;21420;52.196;21.416;2023-03-23T16:20:29;7.20;;;5.50;;
35306;SDS011;21420;52.196;21.416;2023-03-23T16:22:58;5.90;;;4.60;;
35306;SDS011;21420;52.196;21.416;2023-03-23T16:25:26;9.10;;;4.80;;
35306;SDS011;21420;52.196;21.416;2023-03-23T16:27:53;7.50;;;4.80;;
35306;SDS011;21420;52.196;21.416;2023-03-23T16:30:21;8.50;;;4.80;;
35306;SDS011;21420;52.196;21.416;2023-03-23T16:32:51;7.10;;;5.50;;
35306;SDS011;21420;52.196;21.416;2023-03-23T16:35:22;7.20;;;4.60;;
35306;SDS011;21420;52.196;21.416;2023-03-23T16:37:54;9.60;;;5.30;;
35306;SDS011;21420;52.196;21.416;2023-03-23T16:40:34;8.40;;;4.90;;
35306;SDS011;21420;52.196;21.416;2023-03-23T16:43:04;9.60;;;5.40;;
35306;SDS011;21420;52.196;21.416;2023-03-23T16:45:35;8.10;;;4.50;;
35306;SDS011;21420;52.196;21.416;2023-03-23T16:48:06;7.20;;;4.30;;
35306;SDS011;21420;52.196;21.416;2023-03-23T16:50:34;6.40;;;5.00;;
35306;SDS011;21420;52.196;21.416;2023-03-23T16:53:03;8.20;;;4.60;;
35306;SDS011;21420;52.196;21.416;2023-03-23T16:55:32;8.10;;;4.50;;
35306;SDS011;21420;52.196;21.416;2023-03-23T16:58:00;7.30;;;4.70;;
35306;SDS011;21420;52.196;21.416;2023-03-23T17:00:42;5.20;;;4.60;;
35306;SDS011;21420;52.196;21.416;2023-03-23T17:03:11;5.70;;;4.60;;
35306;SDS011;21420;52.196;21.416;2023-03-23T17:05:39;7.30;;;5.00;;
35306;SDS011;21420;52.196;21.416;2023-03-23T17:08:06;5.90;;;4.90;;
35306;SDS011;21420;52.196;21.416;2023-03-23T17:10:36;6.40;;;4.20;;
35306;SDS011;21420;52.196;21.416;2023-03-23T17:13:04;6.60;;;4.90;;
35306;SDS011;21420;52.196;21.416;2023-03-23T17:15:31;8.00;;;4.50;;
35306;SDS011;21420;52.196;21.416;2023-03-23T17:17:58;6.50;;;4.10;;
35306;SDS011;21420;52.196;21.416;2023-03-23T17:20:25;5.90;;;4.40;;
35306;SDS011;21420;52.196;21.416;2023-03-23T17:22:52;9.70;;;4.70;;
35306;SDS011;21420;52.196;21.416;2023-03-23T17:25:19;7.10;;;4.40;;
35306;SDS011;21420;52.196;21.416;2023-03-23T17:27:46;6.40;;;4.30;;
35306;SDS011;21420;52.196;21.416;2023-03-23T17:30:13;7.20;;;4.30;;
35306;SDS011;21420;52.196;21.416;2023-03-23T17:32:40;6.00;;;4.60;;
35306;SDS011;21420;52.196;21.416;2023-03-23T17:35:07;6.40;;;4.50;;
35306;SDS011;21420;52.196;21.416;2023-03-23T17:37:35;6.70;;;4.30;;
35306;SDS011;21420;52.196;21.416;2023-03-23T17:40:03;10.10;;;5.40;;
35306;SDS011;21420;52.196;21.416;2023-03-23T17:42:36;10.60;;;5.30;;
35306;SDS011;21420;52.196;21.416;2023-03-23T17:45:04;8.60;;;5.00;;
35306;SDS011;21420;52.196;21.416;2023-03-23T17:47:33;7.30;;;5.20;;
35306;SDS011;21420;52.196;21.416;2023-03-23T17:50:00;8.70;;;7.00;;